aviador You're here:

RJTY Decoded Metar

YOKOTA in JAPAN
Report Time2017-09-20 06:56:00
UTC Time2017-09-20 07:40:23
Flight Rules vfr VFR
Wind210° at 04 kt
W.Decomp.*RWY 18: 3.2 kt HW 2.4 kt RCW
W.Rank210° ranks 27
Current wind is below 210° avg. (5.9)
Visibility9999 m
Phenomena:N/A
Clouds:N/A
Expected CloudBase > 2,000 ft AGL from Temp-Dew spread
CeilingNone
Temp23°C (ISA +9)
Dew Point18°C (74% RH)
QNH1006 hPa
Density Alt2,001 ft
Elevation456 ft
Report Wrong Elevation
Raw Report
RJTY 200656Z AUTO 21004KT 10SM CLR 23/18 A2971 RMK AO2 SLPNO
T02300177 FZRANO $=

Extra information for RJTY:More info

Metar Taf Metar & Taf Last 4 Metars F.Rules Stats Wind Profile Meteogram Temp Stats Airport Information Weather charts Add Link Nearby VenuesMetar ALERT Operation Metar Decoded Social comments